Lyndhurst, New Jersey
Current Conditions -  °F | °C
As of 9:51 PM on Wednesday 22 Oct 2014 (Local Time) from KTEB Reporting Station
Light Rain Light Rain  
Wind Chill: 52°   Ceiling: 1500
Heat Index: 52°   Visibility: 3mi
Dew Point: 47°   Wind: 15mph
Humidity: 83%   Direction: 350°N
Pressure: 29.75"   Gusts: 29mph
Location:  40.81°N, 74.12°W
Report Text: KTEB 230151Z 35013G25KT 3SM -RA BR BKN015 BKN028 OVC047 11/08 A2975 RMK AO2 SLP074 P0007 T01110083 $
Loading
Personal Weather Stations






























Interactive Weather Map
Tropical Storm Tracking
New forecast layout! Learn more

10-Day Weather Forecast

Advertisements
Track Severe Weather on mobile